sensor_id;sensor_type;location;lat;lon;timestamp;temperature;humidity
5556;DHT22;2801;50.972;7.856;2023-07-22T00:01:35;8.70;99.90
5556;DHT22;2801;50.972;7.856;2023-07-22T00:04:03;8.70;99.90
5556;DHT22;2801;50.972;7.856;2023-07-22T00:06:30;8.60;99.90
5556;DHT22;2801;50.972;7.856;2023-07-22T00:08:57;8.70;99.90
5556;DHT22;2801;50.972;7.856;2023-07-22T00:11:24;8.70;99.90
5556;DHT22;2801;50.972;7.856;2023-07-22T00:13:51;8.60;99.90
5556;DHT22;2801;50.972;7.856;2023-07-22T00:16:18;8.60;99.90
5556;DHT22;2801;50.972;7.856;2023-07-22T00:18:45;8.60;99.90
5556;DHT22;2801;50.972;7.856;2023-07-22T00:21:14;8.60;99.90
5556;DHT22;2801;50.972;7.856;2023-07-22T00:23:41;8.60;99.90
5556;DHT22;2801;50.972;7.856;2023-07-22T00:26:08;8.50;99.90
5556;DHT22;2801;50.972;7.856;2023-07-22T00:28:36;8.50;99.90
5556;DHT22;2801;50.972;7.856;2023-07-22T00:31:03;8.40;99.90
5556;DHT22;2801;50.972;7.856;2023-07-22T00:33:40;8.40;99.90
5556;DHT22;2801;50.972;7.856;2023-07-22T00:36:07;8.40;99.90
5556;DHT22;2801;50.972;7.856;2023-07-22T00:38:34;8.30;99.90
5556;DHT22;2801;50.972;7.856;2023-07-22T00:41:26;8.30;99.90
5556;DHT22;2801;50.972;7.856;2023-07-22T00:43:53;8.20;99.90
5556;DHT22;2801;50.972;7.856;2023-07-22T00:46:20;8.20;99.90
5556;DHT22;2801;50.972;7.856;2023-07-22T00:49:15;8.30;99.90
5556;DHT22;2801;50.972;7.856;2023-07-22T00:51:43;8.30;99.90
5556;DHT22;2801;50.972;7.856;2023-07-22T00:54:10;8.20;99.90
5556;DHT22;2801;50.972;7.856;2023-07-22T00:57:08;8.20;99.90
5556;DHT22;2801;50.972;7.856;2023-07-22T00:59:36;8.20;99.90
5556;DHT22;2801;50.972;7.856;2023-07-22T01:02:03;8.10;99.90
5556;DHT22;2801;50.972;7.856;2023-07-22T01:07:39;8.10;99.90
5556;DHT22;2801;50.972;7.856;2023-07-22T01:10:07;8.00;99.90
5556;DHT22;2801;50.972;7.856;2023-07-22T01:13:06;7.90;99.90
5556;DHT22;2801;50.972;7.856;2023-07-22T01:15:33;7.80;99.90
5556;DHT22;2801;50.972;7.856;2023-07-22T01:18:02;7.80;99.90
5556;DHT22;2801;50.972;7.856;2023-07-22T01:20:30;7.80;99.90
5556;DHT22;2801;50.972;7.856;2023-07-22T01:23:31;7.80;99.90
5556;DHT22;2801;50.972;7.856;2023-07-22T01:26:06;7.80;99.90
5556;DHT22;2801;50.972;7.856;2023-07-22T01:29:05;7.70;99.90
5556;DHT22;2801;50.972;7.856;2023-07-22T01:31:37;7.60;99.90
5556;DHT22;2801;50.972;7.856;2023-07-22T01:34:05;7.60;99.90
5556;DHT22;2801;50.972;7.856;2023-07-22T01:36:32;7.60;99.90
5556;DHT22;2801;50.972;7.856;2023-07-22T01:39:21;7.60;99.90
5556;DHT22;2801;50.972;7.856;2023-07-22T01:41:48;7.60;99.90
5556;DHT22;2801;50.972;7.856;2023-07-22T01:44:15;7.50;99.90
5556;DHT22;2801;50.972;7.856;2023-07-22T01:46:43;7.50;99.90
5556;DHT22;2801;50.972;7.856;2023-07-22T01:49:43;7.50;99.90
5556;DHT22;2801;50.972;7.856;2023-07-22T01:52:10;7.50;99.90
5556;DHT22;2801;50.972;7.856;2023-07-22T01:54:37;7.50;99.90
5556;DHT22;2801;50.972;7.856;2023-07-22T01:57:29;7.50;99.90
5556;DHT22;2801;50.972;7.856;2023-07-22T01:59:57;7.50;99.90
5556;DHT22;2801;50.972;7.856;2023-07-22T02:02:24;7.50;99.90
5556;DHT22;2801;50.972;7.856;2023-07-22T02:05:23;7.40;99.90
5556;DHT22;2801;50.972;7.856;2023-07-22T02:07:51;7.40;99.90
5556;DHT22;2801;50.972;7.856;2023-07-22T02:10:18;7.40;99.90
5556;DHT22;2801;50.972;7.856;2023-07-22T02:13:19;7.40;99.90
5556;DHT22;2801;50.972;7.856;2023-07-22T02:15:46;7.40;99.90
5556;DHT22;2801;50.972;7.856;2023-07-22T02:18:14;7.50;99.90
5556;DHT22;2801;50.972;7.856;2023-07-22T02:21:06;7.30;99.90
5556;DHT22;2801;50.972;7.856;2023-07-22T02:23:37;7.30;99.90
5556;DHT22;2801;50.972;7.856;2023-07-22T02:26:04;7.30;99.90
5556;DHT22;2801;50.972;7.856;2023-07-22T02:28:32;7.20;99.90
5556;DHT22;2801;50.972;7.856;2023-07-22T02:31:03;7.20;99.90
5556;DHT22;2801;50.972;7.856;2023-07-22T02:34:01;7.10;99.90
5556;DHT22;2801;50.972;7.856;2023-07-22T02:36:28;7.10;99.90
5556;DHT22;2801;50.972;7.856;2023-07-22T02:38:56;7.10;99.90
5556;DHT22;2801;50.972;7.856;2023-07-22T02:41:57;7.10;99.90
5556;DHT22;2801;50.972;7.856;2023-07-22T02:44:27;7.10;99.90
5556;DHT22;2801;50.972;7.856;2023-07-22T02:46:54;7.10;99.90
5556;DHT22;2801;50.972;7.856;2023-07-22T02:49:21;7.10;99.90
5556;DHT22;2801;50.972;7.856;2023-07-22T02:52:13;7.00;99.90
5556;DHT22;2801;50.972;7.856;2023-07-22T02:54:40;7.10;99.90
5556;DHT22;2801;50.972;7.856;2023-07-22T02:57:08;7.10;99.90
5556;DHT22;2801;50.972;7.856;2023-07-22T02:59:35;7.10;99.90
5556;DHT22;2801;50.972;7.856;2023-07-22T03:02:02;7.10;99.90
5556;DHT22;2801;50.972;7.856;2023-07-22T03:04:54;7.10;99.90
5556;DHT22;2801;50.972;7.856;2023-07-22T03:07:23;7.00;99.90
5556;DHT22;2801;50.972;7.856;2023-07-22T03:09:50;7.00;99.90
5556;DHT22;2801;50.972;7.856;2023-07-22T03:12:42;7.00;99.90
5556;DHT22;2801;50.972;7.856;2023-07-22T03:15:09;7.00;99.90
5556;DHT22;2801;50.972;7.856;2023-07-22T03:17:39;7.00;99.90
5556;DHT22;2801;50.972;7.856;2023-07-22T03:20:42;7.10;99.90
5556;DHT22;2801;50.972;7.856;2023-07-22T03:23:09;7.00;99.90
5556;DHT22;2801;50.972;7.856;2023-07-22T03:25:36;7.00;99.90
5556;DHT22;2801;50.972;7.856;2023-07-22T03:28:37;6.90;99.90
5556;DHT22;2801;50.972;7.856;2023-07-22T03:31:04;6.90;99.90
5556;DHT22;2801;50.972;7.856;2023-07-22T03:33:55;6.90;99.90
5556;DHT22;2801;50.972;7.856;2023-07-22T03:36:26;6.90;99.90
5556;DHT22;2801;50.972;7.856;2023-07-22T03:38:54;6.90;99.90
5556;DHT22;2801;50.972;7.856;2023-07-22T03:41:21;6.90;99.90
5556;DHT22;2801;50.972;7.856;2023-07-22T03:44:16;7.00;99.90
5556;DHT22;2801;50.972;7.856;2023-07-22T03:46:43;7.00;99.90
5556;DHT22;2801;50.972;7.856;2023-07-22T03:49:10;7.00;99.90
5556;DHT22;2801;50.972;7.856;2023-07-22T03:52:02;7.30;99.90
5556;DHT22;2801;50.972;7.856;2023-07-22T03:54:29;7.10;99.90
5556;DHT22;2801;50.972;7.856;2023-07-22T03:56:56;7.10;99.90
5556;DHT22;2801;50.972;7.856;2023-07-22T03:59:57;7.00;99.90
5556;DHT22;2801;50.972;7.856;2023-07-22T04:02:24;7.00;99.90
5556;DHT22;2801;50.972;7.856;2023-07-22T04:04:53;7.00;99.90
5556;DHT22;2801;50.972;7.856;2023-07-22T04:07:21;7.00;99.90
5556;DHT22;2801;50.972;7.856;2023-07-22T04:10:14;7.00;99.90
5556;DHT22;2801;50.972;7.856;2023-07-22T04:12:41;7.00;99.90
5556;DHT22;2801;50.972;7.856;2023-07-22T04:15:09;7.00;99.90
5556;DHT22;2801;50.972;7.856;2023-07-22T04:17:36;7.00;99.90
5556;DHT22;2801;50.972;7.856;2023-07-22T04:20:03;7.10;99.90
5556;DHT22;2801;50.972;7.856;2023-07-22T04:23:16;7.00;99.90
5556;DHT22;2801;50.972;7.856;2023-07-22T04:26:11;7.10;99.90
5556;DHT22;2801;50.972;7.856;2023-07-22T04:28:41;7.10;99.90
5556;DHT22;2801;50.972;7.856;2023-07-22T04:31:08;7.20;99.90
5556;DHT22;2801;50.972;7.856;2023-07-22T04:33:36;7.30;99.90
5556;DHT22;2801;50.972;7.856;2023-07-22T04:36:31;7.30;99.90
5556;DHT22;2801;50.972;7.856;2023-07-22T04:38:58;7.40;99.90
5556;DHT22;2801;50.972;7.856;2023-07-22T04:41:26;7.50;99.90
5556;DHT22;2801;50.972;7.856;2023-07-22T04:44:18;7.60;99.90
5556;DHT22;2801;50.972;7.856;2023-07-22T04:46:46;7.70;99.90
5556;DHT22;2801;50.972;7.856;2023-07-22T04:49:13;7.90;99.90
5556;DHT22;2801;50.972;7.856;2023-07-22T04:52:07;8.00;99.90
5556;DHT22;2801;50.972;7.856;2023-07-22T04:54:34;8.10;99.90
5556;DHT22;2801;50.972;7.856;2023-07-22T04:57:02;8.20;99.90
5556;DHT22;2801;50.972;7.856;2023-07-22T05:00:02;8.30;99.90
5556;DHT22;2801;50.972;7.856;2023-07-22T05:02:32;8.50;99.90
5556;DHT22;2801;50.972;7.856;2023-07-22T05:08:08;8.80;99.90
5556;DHT22;2801;50.972;7.856;2023-07-22T05:10:36;9.00;99.90
5556;DHT22;2801;50.972;7.856;2023-07-22T05:13:29;9.20;99.90
5556;DHT22;2801;50.972;7.856;2023-07-22T05:15:56;9.50;99.90
5556;DHT22;2801;50.972;7.856;2023-07-22T05:18:23;9.80;99.90
5556;DHT22;2801;50.972;7.856;2023-07-22T05:20:50;10.10;99.90
5556;DHT22;2801;50.972;7.856;2023-07-22T05:23:45;10.40;99.90
5556;DHT22;2801;50.972;7.856;2023-07-22T05:26:12;10.70;99.90
5556;DHT22;2801;50.972;7.856;2023-07-22T05:28:39;11.10;99.90
5556;DHT22;2801;50.972;7.856;2023-07-22T05:31:22;11.30;99.90
5556;DHT22;2801;50.972;7.856;2023-07-22T05:33:55;11.70;99.90
5556;DHT22;2801;50.972;7.856;2023-07-22T05:36:22;12.00;99.90
5556;DHT22;2801;50.972;7.856;2023-07-22T05:38:49;12.20;99.90
5556;DHT22;2801;50.972;7.856;2023-07-22T05:44:23;12.50;99.90
5556;DHT22;2801;50.972;7.856;2023-07-22T05:46:50;12.60;99.90
5556;DHT22;2801;50.972;7.856;2023-07-22T05:49:17;12.50;99.90
5556;DHT22;2801;50.972;7.856;2023-07-22T05:52:21;12.60;99.90
5556;DHT22;2801;50.972;7.856;2023-07-22T05:54:48;12.90;99.90
5556;DHT22;2801;50.972;7.856;2023-07-22T05:57:16;13.20;99.90
5556;DHT22;2801;50.972;7.856;2023-07-22T05:59:43;13.60;99.90
5556;DHT22;2801;50.972;7.856;2023-07-22T06:02:13;13.90;99.90
5556;DHT22;2801;50.972;7.856;2023-07-22T06:04:40;14.20;99.90
5556;DHT22;2801;50.972;7.856;2023-07-22T06:07:07;14.40;99.90
5556;DHT22;2801;50.972;7.856;2023-07-22T06:09:34;14.50;99.90
5556;DHT22;2801;50.972;7.856;2023-07-22T06:12:02;14.70;99.90
5556;DHT22;2801;50.972;7.856;2023-07-22T06:14:29;14.90;99.90
5556;DHT22;2801;50.972;7.856;2023-07-22T06:16:56;15.10;99.90
5556;DHT22;2801;50.972;7.856;2023-07-22T06:19:23;15.30;99.90
5556;DHT22;2801;50.972;7.856;2023-07-22T06:21:50;15.40;99.90
5556;DHT22;2801;50.972;7.856;2023-07-22T06:24:18;15.50;99.90
5556;DHT22;2801;50.972;7.856;2023-07-22T06:26:45;15.60;99.90
5556;DHT22;2801;50.972;7.856;2023-07-22T06:29:12;15.70;99.90
5556;DHT22;2801;50.972;7.856;2023-07-22T06:31:39;15.80;99.90
5556;DHT22;2801;50.972;7.856;2023-07-22T06:34:06;15.90;99.90
5556;DHT22;2801;50.972;7.856;2023-07-22T06:36:33;16.00;99.90
5556;DHT22;2801;50.972;7.856;2023-07-22T06:39:00;16.00;99.90
5556;DHT22;2801;50.972;7.856;2023-07-22T06:41:27;16.20;99.90
5556;DHT22;2801;50.972;7.856;2023-07-22T07:42:00;18.90;99.90
5556;DHT22;2801;50.972;7.856;2023-07-22T07:44:28;18.90;99.90
5556;DHT22;2801;50.972;7.856;2023-07-22T07:46:58;18.80;99.90
5556;DHT22;2801;50.972;7.856;2023-07-22T07:49:25;18.90;99.90
5556;DHT22;2801;50.972;7.856;2023-07-22T07:51:52;18.80;99.90
5556;DHT22;2801;50.972;7.856;2023-07-22T07:54:19;18.80;99.90
5556;DHT22;2801;50.972;7.856;2023-07-22T07:56:47;18.90;99.90
5556;DHT22;2801;50.972;7.856;2023-07-22T07:59:14;19.00;99.90
5556;DHT22;2801;50.972;7.856;2023-07-22T08:01:41;19.20;99.90
5556;DHT22;2801;50.972;7.856;2023-07-22T08:04:08;19.30;99.90
5556;DHT22;2801;50.972;7.856;2023-07-22T08:06:39;19.40;99.90
5556;DHT22;2801;50.972;7.856;2023-07-22T08:09:07;19.50;99.90
5556;DHT22;2801;50.972;7.856;2023-07-22T08:11:37;19.40;99.90
5556;DHT22;2801;50.972;7.856;2023-07-22T08:14:05;19.40;99.90
5556;DHT22;2801;50.972;7.856;2023-07-22T08:16:34;19.40;99.90
5556;DHT22;2801;50.972;7.856;2023-07-22T08:19:02;19.50;99.90
5556;DHT22;2801;50.972;7.856;2023-07-22T08:21:30;19.60;99.90
5556;DHT22;2801;50.972;7.856;2023-07-22T08:23:57;19.70;99.90
5556;DHT22;2801;50.972;7.856;2023-07-22T08:26:27;19.80;99.90
5556;DHT22;2801;50.972;7.856;2023-07-22T08:28:55;19.80;99.90
5556;DHT22;2801;50.972;7.856;2023-07-22T08:31:22;19.80;99.90
5556;DHT22;2801;50.972;7.856;2023-07-22T08:33:50;19.90;99.90
5556;DHT22;2801;50.972;7.856;2023-07-22T08:36:17;19.80;99.90
5556;DHT22;2801;50.972;7.856;2023-07-22T09:28:55;20.20;99.90
5556;DHT22;2801;50.972;7.856;2023-07-22T09:31:25;20.30;99.90
5556;DHT22;2801;50.972;7.856;2023-07-22T09:33:55;20.30;99.90
5556;DHT22;2801;50.972;7.856;2023-07-22T09:37:05;20.30;99.90
5556;DHT22;2801;50.972;7.856;2023-07-22T09:39:35;20.20;99.90
5556;DHT22;2801;50.972;7.856;2023-07-22T09:42:03;20.10;99.90
5556;DHT22;2801;50.972;7.856;2023-07-22T09:44:31;20.10;99.90
5556;DHT22;2801;50.972;7.856;2023-07-22T09:47:07;20.30;99.90
5556;DHT22;2801;50.972;7.856;2023-07-22T09:49:40;20.50;99.90
5556;DHT22;2801;50.972;7.856;2023-07-22T09:52:10;20.70;99.90
5556;DHT22;2801;50.972;7.856;2023-07-22T09:54:47;20.90;99.90
5556;DHT22;2801;50.972;7.856;2023-07-22T09:57:16;21.00;99.80
5556;DHT22;2801;50.972;7.856;2023-07-22T09:59:45;21.00;99.50
5556;DHT22;2801;50.972;7.856;2023-07-22T10:02:18;21.00;99.70
5556;DHT22;2801;50.972;7.856;2023-07-22T10:04:48;21.10;99.60
5556;DHT22;2801;50.972;7.856;2023-07-22T10:07:16;21.20;99.50
5556;DHT22;2801;50.972;7.856;2023-07-22T10:09:46;21.30;99.30
5556;DHT22;2801;50.972;7.856;2023-07-22T10:12:14;21.40;99.10
5556;DHT22;2801;50.972;7.856;2023-07-22T10:14:42;21.50;98.70
5556;DHT22;2801;50.972;7.856;2023-07-22T10:17:11;21.50;98.30
5556;DHT22;2801;50.972;7.856;2023-07-22T10:19:40;21.50;97.90
5556;DHT22;2801;50.972;7.856;2023-07-22T10:22:12;21.50;97.30
5556;DHT22;2801;50.972;7.856;2023-07-22T10:24:40;21.50;96.70
5556;DHT22;2801;50.972;7.856;2023-07-22T10:27:08;21.50;97.00
5556;DHT22;2801;50.972;7.856;2023-07-22T10:29:36;21.60;96.40
5556;DHT22;2801;50.972;7.856;2023-07-22T10:32:05;21.60;95.90
5556;DHT22;2801;50.972;7.856;2023-07-22T10:34:32;21.60;94.40
5556;DHT22;2801;50.972;7.856;2023-07-22T10:37:00;21.60;94.60
5556;DHT22;2801;50.972;7.856;2023-07-22T10:39:28;21.60;94.40
5556;DHT22;2801;50.972;7.856;2023-07-22T10:42:05;21.50;94.40
5556;DHT22;2801;50.972;7.856;2023-07-22T10:44:36;21.50;94.50
5556;DHT22;2801;50.972;7.856;2023-07-22T10:47:04;21.50;94.90
5556;DHT22;2801;50.972;7.856;2023-07-22T10:49:47;21.50;94.50
5556;DHT22;2801;50.972;7.856;2023-07-22T10:52:42;21.50;94.10
5556;DHT22;2801;50.972;7.856;2023-07-22T10:55:15;21.60;93.60
5556;DHT22;2801;50.972;7.856;2023-07-22T10:57:51;21.80;92.90
5556;DHT22;2801;50.972;7.856;2023-07-22T11:00:20;22.10;92.30
5556;DHT22;2801;50.972;7.856;2023-07-22T11:03:12;22.40;91.80
5556;DHT22;2801;50.972;7.856;2023-07-22T11:05:52;22.40;90.60
5556;DHT22;2801;50.972;7.856;2023-07-22T11:08:38;22.50;90.10
5556;DHT22;2801;50.972;7.856;2023-07-22T11:11:07;22.50;88.20
5556;DHT22;2801;50.972;7.856;2023-07-22T11:13:38;22.60;87.40
5556;DHT22;2801;50.972;7.856;2023-07-22T11:16:10;22.70;88.90
5556;DHT22;2801;50.972;7.856;2023-07-22T11:18:39;22.90;87.40
5556;DHT22;2801;50.972;7.856;2023-07-22T11:21:11;23.00;87.00
5556;DHT22;2801;50.972;7.856;2023-07-22T11:23:39;23.00;87.50
5556;DHT22;2801;50.972;7.856;2023-07-22T11:26:06;22.90;87.20
5556;DHT22;2801;50.972;7.856;2023-07-22T11:28:33;22.90;85.80
5556;DHT22;2801;50.972;7.856;2023-07-22T11:31:01;23.00;87.50
5556;DHT22;2801;50.972;7.856;2023-07-22T11:33:38;23.10;86.20
5556;DHT22;2801;50.972;7.856;2023-07-22T11:36:07;23.10;85.30
5556;DHT22;2801;50.972;7.856;2023-07-22T11:38:37;23.10;83.40
5556;DHT22;2801;50.972;7.856;2023-07-22T11:41:08;22.90;82.20
5556;DHT22;2801;50.972;7.856;2023-07-22T11:43:41;22.60;81.20
5556;DHT22;2801;50.972;7.856;2023-07-22T11:46:17;22.40;82.50
5556;DHT22;2801;50.972;7.856;2023-07-22T11:48:51;22.30;82.50
5556;DHT22;2801;50.972;7.856;2023-07-22T11:51:24;22.10;82.60
5556;DHT22;2801;50.972;7.856;2023-07-22T11:53:54;22.30;83.80
5556;DHT22;2801;50.972;7.856;2023-07-22T11:56:27;22.40;81.90
5556;DHT22;2801;50.972;7.856;2023-07-22T11:58:56;22.50;81.60
5556;DHT22;2801;50.972;7.856;2023-07-22T12:01:23;22.60;83.10
5556;DHT22;2801;50.972;7.856;2023-07-22T12:03:55;22.60;83.30
5556;DHT22;2801;50.972;7.856;2023-07-22T12:06:25;22.60;82.80
5556;DHT22;2801;50.972;7.856;2023-07-22T12:08:53;22.50;82.70
5556;DHT22;2801;50.972;7.856;2023-07-22T12:11:23;22.50;82.50
5556;DHT22;2801;50.972;7.856;2023-07-22T12:14:08;22.50;82.40
5556;DHT22;2801;50.972;7.856;2023-07-22T12:16:41;22.50;82.90
5556;DHT22;2801;50.972;7.856;2023-07-22T12:19:09;22.50;83.00
5556;DHT22;2801;50.972;7.856;2023-07-22T12:21:36;22.80;83.00
5556;DHT22;2801;50.972;7.856;2023-07-22T12:24:03;23.20;83.20
5556;DHT22;2801;50.972;7.856;2023-07-22T12:26:31;23.50;81.30
5556;DHT22;2801;50.972;7.856;2023-07-22T12:28:58;23.60;79.00
5556;DHT22;2801;50.972;7.856;2023-07-22T12:31:26;23.60;78.90
5556;DHT22;2801;50.972;7.856;2023-07-22T12:33:53;23.60;78.40
5556;DHT22;2801;50.972;7.856;2023-07-22T12:36:20;23.70;78.40
5556;DHT22;2801;50.972;7.856;2023-07-22T12:38:47;23.80;78.10
5556;DHT22;2801;50.972;7.856;2023-07-22T12:41:14;23.80;77.60
5556;DHT22;2801;50.972;7.856;2023-07-22T12:43:41;23.80;76.30
5556;DHT22;2801;50.972;7.856;2023-07-22T12:46:08;23.80;75.50
5556;DHT22;2801;50.972;7.856;2023-07-22T12:48:35;23.80;75.90
5556;DHT22;2801;50.972;7.856;2023-07-22T12:51:02;23.80;74.40
5556;DHT22;2801;50.972;7.856;2023-07-22T12:53:29;23.70;74.60
5556;DHT22;2801;50.972;7.856;2023-07-22T12:55:58;23.80;73.60
5556;DHT22;2801;50.972;7.856;2023-07-22T12:58:25;23.90;73.40
5556;DHT22;2801;50.972;7.856;2023-07-22T13:00:52;23.80;72.80
5556;DHT22;2801;50.972;7.856;2023-07-22T13:03:19;23.70;72.80
5556;DHT22;2801;50.972;7.856;2023-07-22T13:05:46;23.80;72.50
5556;DHT22;2801;50.972;7.856;2023-07-22T13:08:15;23.90;72.60
5556;DHT22;2801;50.972;7.856;2023-07-22T13:10:42;23.80;70.40
5556;DHT22;2801;50.972;7.856;2023-07-22T13:13:11;23.70;71.20
5556;DHT22;2801;50.972;7.856;2023-07-22T13:15:38;23.60;71.60
5556;DHT22;2801;50.972;7.856;2023-07-22T13:18:05;23.50;71.10
5556;DHT22;2801;50.972;7.856;2023-07-22T13:20:32;23.40;70.80
5556;DHT22;2801;50.972;7.856;2023-07-22T13:22:59;23.50;70.90
5556;DHT22;2801;50.972;7.856;2023-07-22T13:25:26;23.80;71.00
5556;DHT22;2801;50.972;7.856;2023-07-22T13:27:53;24.00;70.00
5556;DHT22;2801;50.972;7.856;2023-07-22T13:30:21;24.00;68.90
5556;DHT22;2801;50.972;7.856;2023-07-22T13:32:48;24.00;70.30
5556;DHT22;2801;50.972;7.856;2023-07-22T13:35:15;24.20;69.60
5556;DHT22;2801;50.972;7.856;2023-07-22T13:37:42;24.40;68.40
5556;DHT22;2801;50.972;7.856;2023-07-22T13:40:09;24.50;67.10
5556;DHT22;2801;50.972;7.856;2023-07-22T13:42:37;24.70;67.10
5556;DHT22;2801;50.972;7.856;2023-07-22T13:45:05;24.80;66.40
5556;DHT22;2801;50.972;7.856;2023-07-22T13:47:33;24.80;64.60
5556;DHT22;2801;50.972;7.856;2023-07-22T13:50:00;24.70;63.70
5556;DHT22;2801;50.972;7.856;2023-07-22T13:52:27;24.60;64.00
5556;DHT22;2801;50.972;7.856;2023-07-22T13:54:54;24.60;64.20
5556;DHT22;2801;50.972;7.856;2023-07-22T13:57:21;24.80;63.90
5556;DHT22;2801;50.972;7.856;2023-07-22T13:59:48;24.80;64.10
5556;DHT22;2801;50.972;7.856;2023-07-22T14:02:15;25.00;62.90
5556;DHT22;2801;50.972;7.856;2023-07-22T14:04:42;25.00;61.50
5556;DHT22;2801;50.972;7.856;2023-07-22T14:07:09;24.90;61.10
5556;DHT22;2801;50.972;7.856;2023-07-22T14:09:36;24.80;61.70
5556;DHT22;2801;50.972;7.856;2023-07-22T14:12:03;24.90;61.60
5556;DHT22;2801;50.972;7.856;2023-07-22T14:14:30;25.10;61.70
5556;DHT22;2801;50.972;7.856;2023-07-22T14:16:57;25.20;60.70
5556;DHT22;2801;50.972;7.856;2023-07-22T14:19:24;25.30;59.90
5556;DHT22;2801;50.972;7.856;2023-07-22T14:21:51;25.40;59.50
5556;DHT22;2801;50.972;7.856;2023-07-22T14:24:18;25.40;59.40
5556;DHT22;2801;50.972;7.856;2023-07-22T14:26:45;25.50;59.50
5556;DHT22;2801;50.972;7.856;2023-07-22T14:29:14;25.60;59.20
5556;DHT22;2801;50.972;7.856;2023-07-22T14:31:42;25.70;58.50
5556;DHT22;2801;50.972;7.856;2023-07-22T14:34:10;25.80;59.10
5556;DHT22;2801;50.972;7.856;2023-07-22T14:36:37;26.00;58.60
5556;DHT22;2801;50.972;7.856;2023-07-22T14:39:04;26.10;57.60
5556;DHT22;2801;50.972;7.856;2023-07-22T14:41:31;26.10;57.50
5556;DHT22;2801;50.972;7.856;2023-07-22T14:43:58;26.10;57.50
5556;DHT22;2801;50.972;7.856;2023-07-22T14:46:25;26.30;57.40
5556;DHT22;2801;50.972;7.856;2023-07-22T14:48:52;26.30;58.10
5556;DHT22;2801;50.972;7.856;2023-07-22T14:51:19;26.40;58.00
5556;DHT22;2801;50.972;7.856;2023-07-22T14:53:47;26.50;57.00
5556;DHT22;2801;50.972;7.856;2023-07-22T14:56:13;26.50;56.20
5556;DHT22;2801;50.972;7.856;2023-07-22T14:58:41;26.60;56.80
5556;DHT22;2801;50.972;7.856;2023-07-22T15:01:08;26.70;56.20
5556;DHT22;2801;50.972;7.856;2023-07-22T15:03:37;26.70;56.40
5556;DHT22;2801;50.972;7.856;2023-07-22T15:06:05;26.70;56.40
5556;DHT22;2801;50.972;7.856;2023-07-22T15:08:33;26.60;55.70
5556;DHT22;2801;50.972;7.856;2023-07-22T15:11:00;26.40;55.50
5556;DHT22;2801;50.972;7.856;2023-07-22T15:13:27;26.20;56.60
5556;DHT22;2801;50.972;7.856;2023-07-22T15:15:54;26.20;56.60
5556;DHT22;2801;50.972;7.856;2023-07-22T15:18:24;26.10;57.00
5556;DHT22;2801;50.972;7.856;2023-07-22T15:20:52;26.10;56.20
5556;DHT22;2801;50.972;7.856;2023-07-22T15:23:19;26.10;55.90
5556;DHT22;2801;50.972;7.856;2023-07-22T15:25:50;26.00;56.10
5556;DHT22;2801;50.972;7.856;2023-07-22T15:28:17;25.90;56.60
5556;DHT22;2801;50.972;7.856;2023-07-22T15:30:44;25.90;56.70
5556;DHT22;2801;50.972;7.856;2023-07-22T15:33:11;25.90;56.80
5556;DHT22;2801;50.972;7.856;2023-07-22T15:35:38;26.00;56.70
5556;DHT22;2801;50.972;7.856;2023-07-22T15:38:05;26.10;56.40
5556;DHT22;2801;50.972;7.856;2023-07-22T15:40:35;26.10;55.80
5556;DHT22;2801;50.972;7.856;2023-07-22T15:43:03;26.10;55.30
5556;DHT22;2801;50.972;7.856;2023-07-22T15:45:30;26.10;55.70
5556;DHT22;2801;50.972;7.856;2023-07-22T15:47:57;26.10;55.20
5556;DHT22;2801;50.972;7.856;2023-07-22T15:50:26;26.10;55.70
5556;DHT22;2801;50.972;7.856;2023-07-22T15:52:53;26.30;55.80
5556;DHT22;2801;50.972;7.856;2023-07-22T15:55:21;26.30;55.60
5556;DHT22;2801;50.972;7.856;2023-07-22T15:57:48;26.30;55.10
5556;DHT22;2801;50.972;7.856;2023-07-22T16:00:15;26.20;55.30
5556;DHT22;2801;50.972;7.856;2023-07-22T16:02:42;26.30;55.10
5556;DHT22;2801;50.972;7.856;2023-07-22T16:05:09;26.30;55.20
5556;DHT22;2801;50.972;7.856;2023-07-22T16:07:49;26.40;55.40
5556;DHT22;2801;50.972;7.856;2023-07-22T16:10:16;26.40;54.70
5556;DHT22;2801;50.972;7.856;2023-07-22T16:12:43;26.40;54.50
5556;DHT22;2801;50.972;7.856;2023-07-22T16:15:10;26.40;54.60
5556;DHT22;2801;50.972;7.856;2023-07-22T16:17:37;26.40;54.50
5556;DHT22;2801;50.972;7.856;2023-07-22T16:20:04;26.30;54.90
5556;DHT22;2801;50.972;7.856;2023-07-22T16:22:31;26.10;54.00
5556;DHT22;2801;50.972;7.856;2023-07-22T16:25:01;25.80;54.30
5556;DHT22;2801;50.972;7.856;2023-07-22T16:27:28;25.60;54.40
5556;DHT22;2801;50.972;7.856;2023-07-22T16:29:55;25.40;54.50
5556;DHT22;2801;50.972;7.856;2023-07-22T16:32:23;25.20;54.50
5556;DHT22;2801;50.972;7.856;2023-07-22T16:34:50;25.10;54.90
5556;DHT22;2801;50.972;7.856;2023-07-22T16:37:17;24.90;55.00
5556;DHT22;2801;50.972;7.856;2023-07-22T16:39:44;24.80;55.40
5556;DHT22;2801;50.972;7.856;2023-07-22T16:42:11;24.70;55.50
5556;DHT22;2801;50.972;7.856;2023-07-22T16:44:38;24.40;55.20
5556;DHT22;2801;50.972;7.856;2023-07-22T16:47:05;24.20;55.40
5556;DHT22;2801;50.972;7.856;2023-07-22T16:49:32;24.10;55.50
5556;DHT22;2801;50.972;7.856;2023-07-22T16:51:59;24.00;56.20
5556;DHT22;2801;50.972;7.856;2023-07-22T16:54:26;24.00;56.60
5556;DHT22;2801;50.972;7.856;2023-07-22T16:56:54;23.90;57.00
5556;DHT22;2801;50.972;7.856;2023-07-22T16:59:21;23.90;57.10
5556;DHT22;2801;50.972;7.856;2023-07-22T17:01:48;23.80;57.60
5556;DHT22;2801;50.972;7.856;2023-07-22T17:04:15;24.00;58.30
5556;DHT22;2801;50.972;7.856;2023-07-22T17:06:42;24.00;58.90
5556;DHT22;2801;50.972;7.856;2023-07-22T17:09:09;24.10;59.40
5556;DHT22;2801;50.972;7.856;2023-07-22T17:11:38;24.00;59.70
5556;DHT22;2801;50.972;7.856;2023-07-22T17:14:05;24.00;59.30
5556;DHT22;2801;50.972;7.856;2023-07-22T17:16:32;23.80;59.10
5556;DHT22;2801;50.972;7.856;2023-07-22T17:18:59;23.70;59.30
5556;DHT22;2801;50.972;7.856;2023-07-22T17:21:26;23.50;58.70
5556;DHT22;2801;50.972;7.856;2023-07-22T17:23:56;23.30;58.80
5556;DHT22;2801;50.972;7.856;2023-07-22T17:26:23;23.10;58.90
5556;DHT22;2801;50.972;7.856;2023-07-22T17:28:50;22.90;59.40
5556;DHT22;2801;50.972;7.856;2023-07-22T17:31:17;22.80;60.40
5556;DHT22;2801;50.972;7.856;2023-07-22T17:33:44;22.70;61.20
5556;DHT22;2801;50.972;7.856;2023-07-22T17:36:11;22.50;61.10
5556;DHT22;2801;50.972;7.856;2023-07-22T17:38:37;22.50;61.70
5556;DHT22;2801;50.972;7.856;2023-07-22T17:41:04;22.40;61.70
5556;DHT22;2801;50.972;7.856;2023-07-22T17:43:31;22.40;62.00
5556;DHT22;2801;50.972;7.856;2023-07-22T17:45:58;22.40;62.40
5556;DHT22;2801;50.972;7.856;2023-07-22T17:48:25;22.30;62.70
5556;DHT22;2801;50.972;7.856;2023-07-22T17:50:52;22.30;62.80
5556;DHT22;2801;50.972;7.856;2023-07-22T17:53:19;22.20;63.00
5556;DHT22;2801;50.972;7.856;2023-07-22T17:55:48;22.20;63.00
5556;DHT22;2801;50.972;7.856;2023-07-22T17:58:16;22.10;63.50
5556;DHT22;2801;50.972;7.856;2023-07-22T18:00:43;22.10;64.20
5556;DHT22;2801;50.972;7.856;2023-07-22T18:03:10;22.00;64.50
5556;DHT22;2801;50.972;7.856;2023-07-22T18:05:37;22.00;65.00
5556;DHT22;2801;50.972;7.856;2023-07-22T18:08:04;21.90;65.20
5556;DHT22;2801;50.972;7.856;2023-07-22T18:10:31;21.80;65.50
5556;DHT22;2801;50.972;7.856;2023-07-22T18:12:58;21.70;66.10
5556;DHT22;2801;50.972;7.856;2023-07-22T18:15:25;21.70;66.70
5556;DHT22;2801;50.972;7.856;2023-07-22T18:17:52;21.60;67.50
5556;DHT22;2801;50.972;7.856;2023-07-22T18:20:19;21.50;67.70
5556;DHT22;2801;50.972;7.856;2023-07-22T18:22:46;21.50;68.10
5556;DHT22;2801;50.972;7.856;2023-07-22T18:25:13;21.40;68.50
5556;DHT22;2801;50.972;7.856;2023-07-22T18:27:41;21.30;69.80